Time;durP1;ratioP1;P1;durP2;ratioP2;P2;SDS_P1;SDS_P2;PMS_P1;PMS_P2;Temp;Humidity;BMP_temperature;BMP_pressure;BME280_temperature;BME280_humidity;BME280_pressure;Samples;Min_cycle;Max_cycle;Signal;HPM_P1;HPM_P2
2022/03/13 00:00:24;;;;;;;17.30;12.73;;;7.10;99.90;;;;;;5048565;28;20440;-69
2022/03/13 00:02:50;;;;;;;14.77;11.45;;;7.10;99.90;;;;;;5049136;28;20481;-68
2022/03/13 00:05:16;;;;;;;13.07;9.32;;;7.10;99.90;;;;;;5031802;28;20133;-69
2022/03/13 00:07:43;;;;;;;17.33;11.23;;;7.10;99.90;;;;;;5036134;28;20450;-69
2022/03/13 00:10:09;;;;;;;17.23;10.70;;;7.10;99.90;;;;;;5035870;28;20137;-69
2022/03/13 00:12:35;;;;;;;16.08;11.13;;;7.00;99.90;;;;;;5043151;28;20466;-68
2022/03/13 00:15:03;;;;;;;14.20;10.85;;;7.00;99.90;;;;;;5031488;28;20496;-69
2022/03/13 00:17:29;;;;;;;18.90;12.23;;;7.00;99.90;;;;;;5037467;28;20037;-70
2022/03/13 00:19:59;;;;;;;18.75;11.15;;;7.00;99.90;;;;;;5040261;28;20080;-69
2022/03/13 00:22:24;;;;;;;14.30;10.68;;;6.90;99.90;;;;;;5028625;28;20376;-69
2022/03/13 00:24:50;;;;;;;13.80;10.55;;;6.90;99.90;;;;;;5029445;28;20072;-69
2022/03/13 00:27:15;;;;;;;15.18;10.80;;;6.90;99.90;;;;;;5031173;28;20050;-70
2022/03/13 00:29:41;;;;;;;13.57;10.57;;;6.90;99.90;;;;;;5030083;28;20492;-70
2022/03/13 00:32:08;;;;;;;16.20;10.95;;;6.80;99.90;;;;;;5031107;28;20095;-70
2022/03/13 00:34:34;;;;;;;14.43;11.63;;;6.80;99.90;;;;;;5030722;28;20050;-69
2022/03/13 00:37:00;;;;;;;17.00;12.63;;;6.80;99.90;;;;;;5029325;28;20045;-69
2022/03/13 00:39:26;;;;;;;20.23;12.77;;;6.80;99.90;;;;;;5029351;28;20053;-69
2022/03/13 00:41:52;;;;;;;13.95;10.40;;;6.80;99.90;;;;;;5030306;28;20090;-69
2022/03/13 00:44:18;;;;;;;19.45;12.90;;;6.80;99.90;;;;;;5029483;28;20045;-70
2022/03/13 00:46:44;;;;;;;12.80;10.80;;;6.80;99.90;;;;;;5030433;28;20037;-69
2022/03/13 00:49:10;;;;;;;16.05;11.55;;;6.80;99.90;;;;;;5029058;28;20497;-69
2022/03/13 00:51:36;;;;;;;13.68;11.07;;;6.80;99.90;;;;;;5030412;28;20064;-69
2022/03/13 00:54:03;;;;;;;18.42;11.77;;;6.80;99.90;;;;;;5030713;28;20033;-69
2022/03/13 00:56:29;;;;;;;17.63;11.82;;;6.80;99.90;;;;;;5028388;28;20061;-69
2022/03/13 00:58:54;;;;;;;15.45;11.95;;;6.80;99.90;;;;;;5030692;28;20046;-69
2022/03/13 01:01:20;;;;;;;16.42;10.93;;;6.80;99.90;;;;;;5030755;28;20049;-69
2022/03/13 01:03:49;;;;;;;18.17;11.38;;;6.90;99.90;;;;;;5028217;28;20045;-69
2022/03/13 01:06:16;;;;;;;16.50;11.13;;;6.80;99.90;;;;;;5029378;28;20057;-69
2022/03/13 01:08:44;;;;;;;17.35;12.65;;;6.90;99.90;;;;;;5030142;28;20063;-69
2022/03/13 01:11:10;;;;;;;16.33;11.75;;;6.90;99.90;;;;;;5036281;28;20484;-69
2022/03/13 01:13:35;;;;;;;15.68;11.05;;;6.90;99.90;;;;;;5030676;28;20048;-69
2022/03/13 01:16:17;;;;;;;18.08;12.68;;;6.90;99.90;;;;;;5036602;28;20049;-69
2022/03/13 01:19:02;;;;;;;16.40;10.98;;;6.90;99.90;;;;;;5028921;28;20132;-69
2022/03/13 01:21:29;;;;;;;19.52;12.68;;;6.90;99.90;;;;;;5044288;28;20538;-69
2022/03/13 01:24:01;;;;;;;17.60;11.73;;;6.90;99.90;;;;;;5031583;28;20054;-69
2022/03/13 01:26:28;;;;;;;15.25;12.38;;;7.00;99.90;;;;;;5048722;28;20056;-69
2022/03/13 01:28:56;;;;;;;15.10;11.93;;;7.00;99.90;;;;;;5049098;28;20041;-69
2022/03/13 01:31:30;;;;;;;16.05;11.05;;;7.00;99.90;;;;;;5030670;28;20053;-69
2022/03/13 01:33:57;;;;;;;16.08;11.45;;;6.90;99.90;;;;;;5031067;28;20799;-69
2022/03/13 01:36:23;;;;;;;15.65;11.52;;;7.00;99.90;;;;;;5032809;28;20128;-69
2022/03/13 01:38:53;;;;;;;18.92;13.25;;;7.00;99.90;;;;;;5032280;28;20041;-69
2022/03/13 01:41:19;;;;;;;14.13;11.05;;;7.00;99.90;;;;;;5032710;28;20049;-69
2022/03/13 01:43:45;;;;;;;23.58;11.80;;;7.00;99.90;;;;;;5032416;28;20057;-69
2022/03/13 01:46:10;;;;;;;17.40;12.38;;;7.00;99.90;;;;;;5032112;28;20506;-69
2022/03/13 01:48:52;;;;;;;16.15;11.35;;;7.00;99.90;;;;;;5032264;28;20077;-69
2022/03/13 01:51:18;;;;;;;16.50;12.10;;;7.00;99.90;;;;;;5034098;28;20046;-69
2022/03/13 01:53:44;;;;;;;17.65;11.88;;;7.00;99.90;;;;;;5032800;28;20052;-69
2022/03/13 01:56:10;;;;;;;18.88;12.25;;;6.90;99.90;;;;;;5033951;28;20056;-69
2022/03/13 01:58:35;;;;;;;15.75;12.05;;;6.90;99.90;;;;;;5031970;28;20042;-69
2022/03/13 02:01:01;;;;;;;16.08;12.50;;;6.90;99.90;;;;;;5031643;28;20045;-69
2022/03/13 02:03:27;;;;;;;17.10;11.48;;;6.90;99.90;;;;;;5032117;28;20055;-69
2022/03/13 02:05:53;;;;;;;15.38;11.40;;;6.80;99.90;;;;;;5031253;28;20060;-69
2022/03/13 02:08:21;;;;;;;13.90;11.13;;;6.80;99.90;;;;;;5031623;28;20041;-70
2022/03/13 02:10:47;;;;;;;18.52;11.93;;;6.80;99.90;;;;;;5032041;28;20124;-69
2022/03/13 02:13:16;;;;;;;16.10;11.85;;;6.80;99.90;;;;;;5032604;28;20175;-69
2022/03/13 02:15:42;;;;;;;18.10;12.57;;;6.70;99.90;;;;;;5031946;28;20054;-69
2022/03/13 02:18:08;;;;;;;18.05;12.57;;;6.70;99.90;;;;;;5033546;28;20045;-69
2022/03/13 02:20:42;;;;;;;18.02;11.98;;;6.70;99.90;;;;;;5032393;28;20041;-69
2022/03/13 02:23:20;;;;;;;16.60;12.48;;;6.60;99.90;;;;;;5033212;28;20053;-70
2022/03/13 02:25:55;;;;;;;20.00;13.32;;;6.60;99.90;;;;;;5031379;28;20507;-70
2022/03/13 02:28:23;;;;;;;18.90;12.32;;;6.60;99.90;;;;;;5031229;28;20046;-69
2022/03/13 02:30:50;;;;;;;16.92;12.07;;;6.60;99.90;;;;;;5031737;28;20498;-70
2022/03/13 02:33:18;;;;;;;16.42;12.15;;;6.60;99.90;;;;;;5031795;28;20056;-70
2022/03/13 02:36:01;;;;;;;15.20;11.68;;;6.60;99.90;;;;;;5032050;28;20090;-69
2022/03/13 02:38:28;;;;;;;16.52;11.98;;;6.60;99.90;;;;;;5031748;28;20075;-69
2022/03/13 02:40:55;;;;;;;21.50;12.27;;;6.50;99.90;;;;;;5031374;28;20054;-69
2022/03/13 02:43:21;;;;;;;13.75;11.40;;;6.60;99.90;;;;;;5035979;28;20190;-69
2022/03/13 02:45:47;;;;;;;18.38;13.20;;;6.60;99.90;;;;;;5043385;28;20045;-69
2022/03/13 02:48:14;;;;;;;15.77;12.82;;;6.50;99.90;;;;;;5051747;28;20049;-69
2022/03/13 02:50:40;;;;;;;20.30;12.77;;;6.50;99.90;;;;;;5052924;28;20513;-69
2022/03/13 02:53:06;;;;;;;21.15;12.57;;;6.50;99.90;;;;;;5053554;28;20041;-69
2022/03/13 02:55:32;;;;;;;19.67;13.95;;;6.60;99.90;;;;;;5051149;28;20675;-69
2022/03/13 02:57:59;;;;;;;21.85;14.27;;;6.60;99.90;;;;;;5052029;28;20037;-69
2022/03/13 03:01:00;;;;;;;23.52;13.50;;;6.60;99.90;;;;;;5053116;28;20769;-69
2022/03/13 03:03:26;;;;;;;17.75;13.18;;;6.60;99.90;;;;;;5010159;28;20081;-69
2022/03/13 03:05:52;;;;;;;17.85;12.82;;;6.60;99.90;;;;;;5039858;28;20084;-69
2022/03/13 03:08:17;;;;;;;19.55;12.60;;;6.60;99.90;;;;;;5053422;28;20114;-69
2022/03/13 03:10:44;;;;;;;16.95;12.20;;;6.60;99.90;;;;;;5050899;28;20041;-69
2022/03/13 03:13:11;;;;;;;17.17;12.70;;;6.60;99.90;;;;;;5051897;28;20132;-69
2022/03/13 03:15:38;;;;;;;18.02;12.02;;;6.60;99.90;;;;;;5051313;28;20072;-69
2022/03/13 03:18:04;;;;;;;18.20;13.93;;;6.60;99.90;;;;;;5050212;28;20063;-69
2022/03/13 03:20:31;;;;;;;19.33;13.57;;;6.60;99.90;;;;;;5042846;28;20048;-69
2022/03/13 03:22:56;;;;;;;19.92;13.23;;;6.70;99.90;;;;;;5049844;28;20060;-69
2022/03/13 03:25:24;;;;;;;19.42;13.27;;;6.60;99.90;;;;;;5032338;28;20060;-69
2022/03/13 03:27:56;;;;;;;15.60;12.00;;;6.60;99.90;;;;;;5032916;28;20049;-69
2022/03/13 03:30:25;;;;;;;17.50;14.13;;;6.60;99.90;;;;;;5031945;28;20037;-69
2022/03/13 03:32:52;;;;;;;17.67;12.10;;;6.60;99.90;;;;;;5032599;28;20049;-68
2022/03/13 03:35:19;;;;;;;19.15;13.43;;;6.70;99.90;;;;;;5031482;28;20084;-69
2022/03/13 03:37:49;;;;;;;18.10;13.80;;;6.60;99.90;;;;;;5031579;28;20487;-69
2022/03/13 03:40:14;;;;;;;19.10;13.82;;;6.60;99.90;;;;;;5031793;28;20045;-69
2022/03/13 03:42:42;;;;;;;19.83;12.73;;;6.60;99.90;;;;;;5032299;28;20048;-69
2022/03/13 03:45:08;;;;;;;18.23;13.48;;;6.60;99.90;;;;;;5030472;28;20056;-69
2022/03/13 03:47:34;;;;;;;17.65;12.80;;;6.60;99.90;;;;;;5031000;28;20046;-69
2022/03/13 03:50:00;;;;;;;18.63;12.77;;;6.60;99.90;;;;;;5031175;28;20053;-69
2022/03/13 03:52:26;;;;;;;20.50;13.27;;;6.60;99.90;;;;;;5030352;28;20045;-69
2022/03/13 03:54:54;;;;;;;18.73;12.88;;;6.60;99.90;;;;;;5033516;28;20419;-69
2022/03/13 03:57:20;;;;;;;17.83;12.65;;;6.60;99.90;;;;;;5039735;28;20052;-69
2022/03/13 03:59:45;;;;;;;16.95;11.80;;;6.60;99.90;;;;;;5045487;28;20476;-69
2022/03/13 04:02:12;;;;;;;20.42;12.60;;;6.60;99.90;;;;;;5031288;28;20167;-69
2022/03/13 04:04:39;;;;;;;20.80;13.27;;;6.60;99.90;;;;;;5031830;28;20049;-69
2022/03/13 04:07:05;;;;;;;18.67;13.65;;;6.60;99.90;;;;;;5030440;28;20483;-69
2022/03/13 04:09:31;;;;;;;16.13;11.95;;;6.60;99.90;;;;;;5030895;28;20077;-69
2022/03/13 04:11:57;;;;;;;20.33;13.25;;;6.50;99.90;;;;;;5031988;28;20069;-68
2022/03/13 04:14:23;;;;;;;19.23;14.05;;;6.50;99.90;;;;;;5029890;28;20041;-69
2022/03/13 04:16:49;;;;;;;18.33;13.55;;;6.50;99.90;;;;;;5030710;28;20407;-69
2022/03/13 04:19:15;;;;;;;17.85;12.77;;;6.50;99.90;;;;;;5030754;28;20057;-69
2022/03/13 04:21:41;;;;;;;20.65;12.85;;;6.50;99.90;;;;;;5029663;28;20046;-69
2022/03/13 04:24:11;;;;;;;16.85;12.60;;;6.40;99.90;;;;;;5031823;28;20050;-69
2022/03/13 04:26:42;;;;;;;16.02;12.55;;;6.30;99.90;;;;;;5030759;28;20061;-69
2022/03/13 04:29:09;;;;;;;18.00;13.73;;;6.30;99.90;;;;;;5032024;28;20128;-69
2022/03/13 04:31:37;;;;;;;19.00;12.80;;;6.20;99.90;;;;;;5031599;28;20132;-69
2022/03/13 04:34:03;;;;;;;17.88;13.32;;;6.20;99.90;;;;;;5029803;28;20041;-69
2022/03/13 04:36:32;;;;;;;18.77;13.30;;;6.10;99.90;;;;;;5030274;28;20131;-69
2022/03/13 04:38:59;;;;;;;17.13;13.35;;;6.10;99.90;;;;;;5031559;28;20045;-69
2022/03/13 04:41:25;;;;;;;20.88;14.13;;;6.10;99.90;;;;;;5029349;28;20045;-69
2022/03/13 04:43:51;;;;;;;19.63;14.13;;;6.00;99.90;;;;;;5030601;28;20045;-69
2022/03/13 04:46:17;;;;;;;16.13;13.07;;;6.00;99.90;;;;;;5030669;28;20049;-69
2022/03/13 04:48:43;;;;;;;19.77;13.32;;;5.90;99.90;;;;;;5030617;28;20045;-69
2022/03/13 04:51:08;;;;;;;19.48;14.02;;;5.90;99.90;;;;;;5031638;28;20124;-69
2022/03/13 04:53:34;;;;;;;22.63;15.07;;;5.90;99.90;;;;;;5030263;28;20057;-69
2022/03/13 04:56:00;;;;;;;18.65;13.27;;;5.90;99.90;;;;;;5029919;28;20053;-69
2022/03/13 04:58:26;;;;;;;19.30;12.25;;;5.90;99.90;;;;;;5029972;28;20045;-69
2022/03/13 05:00:51;;;;;;;18.17;13.88;;;5.90;99.90;;;;;;5031452;28;20404;-69
2022/03/13 05:03:17;;;;;;;17.77;13.63;;;5.90;99.90;;;;;;5029677;28;20050;-69
2022/03/13 05:05:43;;;;;;;24.35;15.07;;;5.90;99.90;;;;;;5034543;28;20466;-69
2022/03/13 05:08:15;;;;;;;17.40;12.90;;;5.90;99.90;;;;;;5030693;28;20041;-69
2022/03/13 05:10:43;;;;;;;18.42;13.98;;;5.90;99.90;;;;;;5049809;28;20127;-69
2022/03/13 05:13:11;;;;;;;17.67;12.48;;;5.90;99.90;;;;;;5035427;28;20480;-69
2022/03/13 05:15:38;;;;;;;22.42;12.68;;;5.90;99.90;;;;;;5033998;28;20073;-69
2022/03/13 05:18:04;;;;;;;29.92;13.48;;;5.90;99.90;;;;;;5033419;28;20049;-69
2022/03/13 05:20:31;;;;;;;17.42;12.90;;;5.90;99.90;;;;;;5035104;28;20465;-69
2022/03/13 05:22:57;;;;;;;17.05;13.05;;;5.90;99.90;;;;;;5036941;28;20042;-69
2022/03/13 05:25:24;;;;;;;18.88;13.00;;;5.90;99.90;;;;;;5033442;28;20093;-69
2022/03/13 05:27:50;;;;;;;17.33;13.05;;;5.90;99.90;;;;;;5044509;28;20049;-69
2022/03/13 05:30:17;;;;;;;18.73;13.35;;;5.90;99.90;;;;;;5034295;28;20480;-69
2022/03/13 05:32:42;;;;;;;21.33;13.10;;;5.80;99.90;;;;;;5034915;28;20531;-69
2022/03/13 05:35:10;;;;;;;17.98;12.27;;;5.90;99.90;;;;;;5049498;28;20459;-69
2022/03/13 05:37:36;;;;;;;17.85;13.18;;;5.80;99.90;;;;;;5037828;28;20484;-69
2022/03/13 05:40:03;;;;;;;18.95;13.77;;;5.70;99.90;;;;;;5050175;28;20063;-69
2022/03/13 05:42:29;;;;;;;16.88;11.95;;;5.70;99.90;;;;;;5053558;28;20049;-69
2022/03/13 05:44:54;;;;;;;17.08;12.52;;;5.70;99.90;;;;;;5039000;28;20548;-69
2022/03/13 05:47:21;;;;;;;16.05;12.00;;;5.70;99.90;;;;;;5037253;28;20041;-69
2022/03/13 05:49:48;;;;;;;16.23;12.45;;;5.70;99.90;;;;;;5033840;28;20089;-69
2022/03/13 05:52:14;;;;;;;20.27;12.45;;;5.70;99.90;;;;;;5032700;28;20050;-69
2022/03/13 05:54:43;;;;;;;16.88;13.15;;;5.60;99.90;;;;;;5033046;28;20053;-69
2022/03/13 05:57:10;;;;;;;17.88;12.85;;;5.60;99.90;;;;;;5033401;28;20050;-69
2022/03/13 05:59:37;;;;;;;16.25;11.80;;;5.60;99.90;;;;;;5034705;28;20053;-69
2022/03/13 06:02:04;;;;;;;18.58;13.20;;;5.60;99.90;;;;;;5033624;28;20455;-69
2022/03/13 06:04:38;;;;;;;21.38;13.60;;;5.60;99.90;;;;;;5039857;28;20403;-69
2022/03/13 06:07:04;;;;;;;15.68;12.57;;;5.60;99.90;;;;;;5041904;28;20049;-69
2022/03/13 06:09:30;;;;;;;17.30;12.95;;;5.60;99.90;;;;;;5039194;28;20127;-69
2022/03/13 06:11:56;;;;;;;21.00;13.52;;;5.60;99.90;;;;;;5052853;28;20037;-69
2022/03/13 06:14:22;;;;;;;17.98;12.57;;;5.60;99.90;;;;;;5050522;28;20116;-69
2022/03/13 06:16:48;;;;;;;17.83;12.43;;;5.70;99.90;;;;;;5034222;28;20124;-69
2022/03/13 06:19:13;;;;;;;15.80;11.95;;;5.70;99.90;;;;;;5033466;28;20088;-69
2022/03/13 06:21:40;;;;;;;15.07;12.13;;;5.70;99.90;;;;;;5031828;28;20033;-69
2022/03/13 06:24:06;;;;;;;17.40;12.13;;;5.70;99.90;;;;;;5032564;28;20053;-69
2022/03/13 06:26:32;;;;;;;18.88;12.57;;;5.70;99.90;;;;;;5032187;28;20058;-69
2022/03/13 06:28:58;;;;;;;18.33;12.90;;;5.70;99.90;;;;;;5043423;28;20048;-69
2022/03/13 06:31:24;;;;;;;18.25;12.38;;;5.70;99.90;;;;;;5037338;28;20060;-69
2022/03/13 06:33:50;;;;;;;15.48;11.43;;;5.70;99.90;;;;;;5050546;28;20054;-69
2022/03/13 06:36:15;;;;;;;19.98;12.65;;;5.70;99.90;;;;;;5038895;28;20053;-70
2022/03/13 06:38:41;;;;;;;19.58;12.00;;;5.70;99.90;;;;;;5039222;28;20392;-70
2022/03/13 06:41:07;;;;;;;20.27;13.02;;;5.70;99.90;;;;;;5032230;28;20057;-69
2022/03/13 06:43:34;;;;;;;17.33;12.93;;;5.70;99.90;;;;;;5032454;28;20044;-69
2022/03/13 06:46:01;;;;;;;16.85;11.23;;;5.70;99.90;;;;;;5049537;28;20061;-69
2022/03/13 06:48:27;;;;;;;19.42;12.15;;;5.70;99.90;;;;;;5051419;28;20087;-70
2022/03/13 06:50:53;;;;;;;14.25;10.50;;;5.80;99.90;;;;;;5049704;28;20450;-70
2022/03/13 06:53:19;;;;;;;15.85;11.43;;;5.70;99.90;;;;;;5045850;28;20041;-70
2022/03/13 06:55:45;;;;;;;19.27;12.27;;;5.80;99.90;;;;;;5052346;28;20099;-70
2022/03/13 06:58:11;;;;;;;17.17;11.65;;;5.80;99.90;;;;;;5039875;28;20044;-70
2022/03/13 07:00:36;;;;;;;18.00;11.75;;;5.80;99.90;;;;;;5032990;28;20042;-69
2022/03/13 07:03:02;;;;;;;16.38;11.60;;;5.80;99.90;;;;;;5031476;28;20049;-70
2022/03/13 07:05:28;;;;;;;15.38;11.65;;;5.80;99.90;;;;;;5035382;28;20088;-69
2022/03/13 07:07:54;;;;;;;16.52;11.98;;;5.90;99.90;;;;;;5052190;28;20391;-70
2022/03/13 07:10:20;;;;;;;15.20;11.07;;;5.90;99.90;;;;;;5040567;28;20467;-70
2022/03/13 07:12:47;;;;;;;17.80;11.35;;;5.90;99.90;;;;;;5051827;28;20395;-70
2022/03/13 07:15:14;;;;;;;16.38;11.82;;;6.00;99.90;;;;;;5051734;28;20048;-70
2022/03/13 07:17:44;;;;;;;15.65;11.48;;;6.00;99.90;;;;;;5052119;28;20048;-70
2022/03/13 07:20:10;;;;;;;17.75;12.00;;;6.00;99.90;;;;;;5051766;28;20123;-70
2022/03/13 07:22:36;;;;;;;15.57;10.73;;;6.10;99.90;;;;;;5051697;28;20453;-70
2022/03/13 07:25:02;;;;;;;15.20;10.90;;;6.20;99.90;;;;;;5052798;28;20078;-70
2022/03/13 07:27:28;;;;;;;13.48;10.00;;;6.20;99.90;;;;;;5051404;28;20056;-70
2022/03/13 07:29:53;;;;;;;14.48;11.40;;;6.20;99.90;;;;;;5050685;28;20359;-70
2022/03/13 07:32:20;;;;;;;17.13;10.77;;;6.30;99.90;;;;;;5051186;28;20076;-70
2022/03/13 07:34:46;;;;;;;15.18;11.50;;;6.40;99.90;;;;;;5051172;28;20049;-70
2022/03/13 07:37:11;;;;;;;16.70;10.65;;;6.50;99.90;;;;;;5050848;28;20047;-70
2022/03/13 07:39:39;;;;;;;15.27;11.30;;;6.50;99.90;;;;;;5051205;28;20061;-70
2022/03/13 07:42:04;;;;;;;17.02;10.80;;;6.60;99.90;;;;;;5052383;28;20522;-69
2022/03/13 07:44:30;;;;;;;16.98;10.43;;;6.60;99.90;;;;;;5050209;28;20143;-70
2022/03/13 07:46:56;;;;;;;13.05;10.45;;;6.70;99.90;;;;;;5040697;28;20052;-70
2022/03/13 07:49:21;;;;;;;14.77;11.65;;;6.70;99.90;;;;;;5031259;28;20079;-70
2022/03/13 07:51:47;;;;;;;15.88;11.18;;;6.80;99.90;;;;;;5038941;28;20091;-70
2022/03/13 07:54:20;;;;;;;24.80;11.77;;;6.80;99.90;;;;;;5052485;28;20080;-70
2022/03/13 07:56:46;;;;;;;17.60;10.55;;;6.80;99.90;;;;;;5049360;28;20116;-70
2022/03/13 07:59:11;;;;;;;14.68;10.05;;;6.80;99.90;;;;;;5040251;28;20144;-70
2022/03/13 08:01:37;;;;;;;14.75;9.77;;;6.80;99.90;;;;;;5034550;28;20046;-69
2022/03/13 08:04:04;;;;;;;16.58;10.30;;;6.80;99.90;;;;;;5035448;28;20397;-69
2022/03/13 08:06:34;;;;;;;14.95;10.55;;;6.80;99.90;;;;;;5040357;28;20056;-69
2022/03/13 08:09:00;;;;;;;14.90;10.93;;;6.80;99.90;;;;;;5045581;28;20056;-70
2022/03/13 08:11:25;;;;;;;14.13;10.90;;;6.80;99.90;;;;;;5035279;28;20460;-70
2022/03/13 08:13:51;;;;;;;17.35;11.32;;;6.80;99.90;;;;;;5050832;28;20123;-69
2022/03/13 08:16:17;;;;;;;17.02;11.13;;;6.80;99.90;;;;;;5051974;28;20120;-70
2022/03/13 08:18:43;;;;;;;15.02;11.10;;;6.90;99.90;;;;;;5050245;28;20106;-70
2022/03/13 08:21:08;;;;;;;15.00;11.18;;;6.90;99.90;;;;;;5032319;28;20057;-69
2022/03/13 08:23:34;;;;;;;16.85;11.18;;;7.00;99.90;;;;;;5031512;28;20053;-69
2022/03/13 08:26:00;;;;;;;12.85;10.00;;;7.00;99.90;;;;;;5038627;28;20399;-69
2022/03/13 08:28:25;;;;;;;16.92;11.15;;;7.10;99.90;;;;;;5032064;28;20049;-69
2022/03/13 08:30:51;;;;;;;14.55;10.73;;;7.10;99.90;;;;;;5056299;28;20036;-72
2022/03/13 08:33:16;;;;;;;17.25;11.80;;;7.10;99.90;;;;;;5053591;28;20051;-75
2022/03/13 08:35:42;;;;;;;18.20;10.60;;;7.20;99.90;;;;;;5032753;28;20459;-73
2022/03/13 08:38:08;;;;;;;15.32;10.88;;;7.30;99.90;;;;;;5032556;28;20041;-80
2022/03/13 08:40:33;;;;;;;14.82;11.05;;;7.30;99.90;;;;;;5036038;28;20048;-76
2022/03/13 08:42:59;;;;;;;13.70;10.13;;;7.40;99.90;;;;;;5041951;28;20049;-70
2022/03/13 08:45:25;;;;;;;16.80;10.88;;;7.40;99.90;;;;;;5029172;28;20484;-72
2022/03/13 08:47:50;;;;;;;16.95;10.45;;;7.60;99.90;;;;;;5031788;28;20033;-72
2022/03/13 08:50:16;;;;;;;14.82;10.52;;;7.70;99.90;;;;;;5048559;28;20381;-72
2022/03/13 08:52:42;;;;;;;12.95;9.30;;;7.80;99.90;;;;;;5031047;28;20046;-70
2022/03/13 08:55:13;;;;;;;12.95;10.18;;;7.90;99.90;;;;;;5030128;28;20087;-70
2022/03/13 08:57:41;;;;;;;14.25;10.82;;;8.00;99.90;;;;;;5031276;28;20132;-71
2022/03/13 09:00:10;;;;;;;18.58;10.50;;;8.20;99.90;;;;;;5029566;28;20068;-71
2022/03/13 09:02:36;;;;;;;12.88;10.38;;;8.40;99.90;;;;;;5029052;28;20060;-71
2022/03/13 09:05:02;;;;;;;16.38;10.25;;;8.70;99.90;;;;;;5030116;28;20045;-71
2022/03/13 09:07:28;;;;;;;12.80;10.68;;;9.00;99.90;;;;;;5031234;28;20103;-71
2022/03/13 09:09:53;;;;;;;13.88;9.93;;;9.30;99.90;;;;;;5029268;28;20132;-71
2022/03/13 09:12:19;;;;;;;16.73;10.70;;;9.50;99.90;;;;;;5031513;28;20044;-71
2022/03/13 09:14:45;;;;;;;13.55;9.90;;;9.60;99.90;;;;;;5046432;28;20501;-75
2022/03/13 09:17:11;;;;;;;13.73;9.90;;;9.70;99.90;;;;;;5036878;28;20091;-74
2022/03/13 09:19:36;;;;;;;12.07;9.45;;;9.90;99.90;;;;;;5035410;28;20054;-74
2022/03/13 09:22:02;;;;;;;14.18;10.07;;;9.90;99.90;;;;;;5039692;28;20099;-73
2022/03/13 09:24:28;;;;;;;14.55;10.00;;;10.00;99.90;;;;;;5037796;28;20141;-73
2022/03/13 09:26:54;;;;;;;14.55;10.32;;;10.00;99.90;;;;;;5029118;28;20049;-74
2022/03/13 09:29:19;;;;;;;12.65;10.38;;;10.10;99.90;;;;;;5037591;28;20047;-74
2022/03/13 09:31:45;;;;;;;16.23;10.13;;;10.20;99.90;;;;;;5034223;28;20091;-74
2022/03/13 09:34:11;;;;;;;13.93;9.98;;;10.30;99.90;;;;;;5030333;28;20051;-74
2022/03/13 09:36:37;;;;;;;13.43;10.35;;;10.40;99.90;;;;;;5029504;28;20416;-74
2022/03/13 09:39:07;;;;;;;14.00;10.48;;;10.60;99.90;;;;;;5032652;28;20191;-74
2022/03/13 09:41:33;;;;;;;12.18;9.52;;;10.60;99.90;;;;;;5038585;28;20052;-73
2022/03/13 09:43:58;;;;;;;13.55;9.68;;;10.70;98.20;;;;;;5037178;28;20503;-74
2022/03/13 09:46:24;;;;;;;11.75;10.13;;;10.60;97.50;;;;;;5030237;28;20041;-74
2022/03/13 09:48:52;;;;;;;14.13;9.88;;;10.60;96.60;;;;;;5042394;28;20045;-75
2022/03/13 09:51:18;;;;;;;17.73;10.50;;;10.60;96.00;;;;;;5039178;28;20084;-72
2022/03/13 09:53:44;;;;;;;13.02;9.32;;;10.70;96.20;;;;;;5042778;28;20045;-74
2022/03/13 09:56:10;;;;;;;13.38;9.68;;;10.70;95.70;;;;;;5047291;28;20479;-74
2022/03/13 09:58:35;;;;;;;12.50;8.80;;;10.80;95.40;;;;;;5033577;28;20099;-76
2022/03/13 10:01:01;;;;;;;12.38;9.38;;;10.80;94.90;;;;;;5034372;28;20084;-75
2022/03/13 10:03:27;;;;;;;15.82;9.45;;;10.80;95.10;;;;;;5047626;28;20048;-75
2022/03/13 10:05:58;;;;;;;14.27;10.27;;;11.00;95.60;;;;;;5053706;28;20049;-75
2022/03/13 10:08:29;;;;;;;14.35;10.63;;;11.10;94.10;;;;;;5044884;28;20491;-75
2022/03/13 10:10:55;;;;;;;11.88;10.20;;;11.20;94.20;;;;;;5051111;28;20116;-75
2022/03/13 10:13:46;;;;;;;11.57;9.40;;;11.30;94.40;;;;;;5037839;28;20529;-75
2022/03/13 10:16:22;;;;;;;13.68;10.25;;;11.30;94.10;;;;;;5042476;28;20045;-75
2022/03/13 10:18:48;;;;;;;14.85;10.88;;;11.40;93.50;;;;;;5044872;28;20482;-75
2022/03/13 10:21:17;;;;;;;11.65;9.68;;;11.50;93.40;;;;;;5049224;28;20037;-75
2022/03/13 10:23:43;;;;;;;13.10;9.73;;;11.60;93.20;;;;;;5034949;28;20057;-74
2022/03/13 10:26:09;;;;;;;11.63;9.45;;;11.70;92.30;;;;;;5052047;28;20445;-76
2022/03/13 10:28:36;;;;;;;14.88;10.05;;;11.80;92.60;;;;;;5038532;28;20050;-75
2022/03/13 10:31:02;;;;;;;15.18;10.60;;;11.80;91.30;;;;;;5033893;28;20049;-75
2022/03/13 10:33:42;;;;;;;15.55;10.15;;;11.80;91.20;;;;;;5032052;28;20056;-75
2022/03/13 10:36:19;;;;;;;13.93;10.88;;;11.90;91.00;;;;;;5032965;28;20140;-73
2022/03/13 10:38:46;;;;;;;13.77;10.30;;;12.00;90.90;;;;;;5031879;28;20037;-75
2022/03/13 10:41:12;;;;;;;13.68;9.80;;;12.10;90.70;;;;;;5040818;28;20053;-75
2022/03/13 10:43:54;;;;;;;15.82;10.13;;;12.20;90.90;;;;;;5034043;28;20081;-75
2022/03/13 10:46:36;;;;;;;13.75;9.95;;;12.40;90.90;;;;;;5033904;28;20124;-74
2022/03/13 10:49:04;;;;;;;12.65;10.35;;;12.50;90.20;;;;;;5033808;28;20049;-74
2022/03/13 10:51:45;;;;;;;14.20;9.95;;;12.60;89.80;;;;;;5033229;28;20053;-75
2022/03/13 10:54:29;;;;;;;13.15;9.93;;;12.70;88.50;;;;;;5031738;28;20053;-75
2022/03/13 10:57:08;;;;;;;15.15;11.00;;;12.70;86.40;;;;;;5046469;28;20064;-74
2022/03/13 10:59:34;;;;;;;14.57;10.57;;;12.80;84.80;;;;;;5052072;28;20053;-69
2022/03/13 11:02:14;;;;;;;13.35;9.75;;;12.90;86.50;;;;;;5052705;28;20044;-69
2022/03/13 11:04:55;;;;;;;13.48;10.10;;;13.00;82.60;;;;;;5052912;28;20041;-69
2022/03/13 11:07:21;;;;;;;14.68;9.63;;;13.10;84.10;;;;;;5044280;28;20084;-69
2022/03/13 11:09:48;;;;;;;16.63;10.20;;;13.20;84.30;;;;;;5031325;28;20049;-68
2022/03/13 11:12:20;;;;;;;13.43;9.90;;;13.20;84.60;;;;;;5036984;28;20498;-69
2022/03/13 11:14:48;;;;;;;14.10;10.33;;;13.30;85.90;;;;;;5035845;28;20403;-69
2022/03/13 11:17:16;;;;;;;16.10;10.13;;;13.40;83.50;;;;;;5046571;28;20349;-70
2022/03/13 11:19:42;;;;;;;14.88;10.95;;;13.40;84.20;;;;;;5052679;28;20041;-71
2022/03/13 11:22:08;;;;;;;12.80;10.63;;;13.50;83.30;;;;;;5036265;28;20109;-71
2022/03/13 11:24:36;;;;;;;13.88;10.52;;;13.60;81.90;;;;;;5050465;28;20558;-71
2022/03/13 11:27:03;;;;;;;13.55;10.80;;;13.60;82.30;;;;;;5052879;28;20479;-70
2022/03/13 11:29:53;;;;;;;13.38;10.07;;;13.70;80.50;;;;;;5050694;28;20124;-71
2022/03/13 11:32:44;;;;;;;13.93;10.32;;;13.80;78.00;;;;;;5047575;28;20053;-71
2022/03/13 11:35:13;;;;;;;16.67;10.95;;;13.90;77.10;;;;;;5032930;28;20072;-71
2022/03/13 11:37:40;;;;;;;13.23;10.57;;;13.90;76.60;;;;;;5030998;28;20060;-71
2022/03/13 11:40:07;;;;;;;15.18;10.20;;;14.00;77.20;;;;;;5047721;28;20053;-71
2022/03/13 11:42:51;;;;;;;15.25;10.88;;;14.00;76.70;;;;;;5047967;28;20045;-71
2022/03/13 11:45:35;;;;;;;12.55;9.65;;;14.20;75.60;;;;;;5041299;28;20091;-71
2022/03/13 11:48:19;;;;;;;12.05;9.57;;;14.20;75.70;;;;;;5032648;28;20045;-71
2022/03/13 11:51:00;;;;;;;10.65;8.38;;;14.30;73.50;;;;;;5030144;28;20046;-71
2022/03/13 11:53:27;;;;;;;14.85;9.80;;;14.40;75.50;;;;;;5030627;28;20548;-70
2022/03/13 11:56:08;;;;;;;15.20;10.55;;;14.50;75.70;;;;;;5031803;28;20123;-70
2022/03/13 11:58:42;;;;;;;14.65;10.30;;;14.60;72.70;;;;;;5031429;28;20124;-71
2022/03/13 12:01:12;;;;;;;10.65;8.80;;;14.70;72.30;;;;;;5031343;28;20049;-70
2022/03/13 12:03:39;;;;;;;11.98;8.95;;;14.70;72.40;;;;;;5030697;28;20443;-70
2022/03/13 12:06:05;;;;;;;12.15;9.65;;;14.70;72.10;;;;;;5031393;28;20107;-68
2022/03/13 12:09:13;;;;;;;11.68;9.70;;;14.80;72.00;;;;;;5030484;28;20053;-69
2022/03/13 12:11:47;;;;;;;12.40;9.88;;;14.80;69.20;;;;;;5015157;28;20044;-68
2022/03/13 12:14:17;;;;;;;12.85;7.97;;;14.80;70.80;;;;;;5006681;28;20111;-70
2022/03/13 12:16:44;;;;;;;12.77;8.68;;;14.90;71.80;;;;;;5021644;28;20061;-69
2022/03/13 12:19:11;;;;;;;12.43;9.23;;;14.90;71.20;;;;;;5029308;28;20057;-70
2022/03/13 12:21:37;;;;;;;12.70;9.63;;;14.90;70.90;;;;;;5047291;28;20111;-70
2022/03/13 12:24:20;;;;;;;12.07;9.10;;;14.90;70.50;;;;;;5030443;28;20454;-70
2022/03/13 12:26:48;;;;;;;10.77;9.10;;;15.00;69.70;;;;;;5029616;28;20061;-70
2022/03/13 12:29:18;;;;;;;12.02;8.50;;;14.90;70.40;;;;;;5039686;28;20068;-70
2022/03/13 12:31:46;;;;;;;11.43;8.68;;;15.00;70.50;;;;;;5029786;28;20050;-70
2022/03/13 12:34:13;;;;;;;9.65;7.32;;;15.00;69.80;;;;;;5037690;28;20132;-69
2022/03/13 12:36:41;;;;;;;13.10;8.48;;;15.10;69.40;;;;;;5051445;28;20055;-70
2022/03/13 12:39:11;;;;;;;12.98;9.07;;;15.10;69.10;;;;;;5051254;28;20080;-70